sensor_id;sensor_type;location;lat;lon;timestamp;P1;durP1;ratioP1;P2;durP2;ratioP2
54875;SDS011;40764;48.472;8.166;2023-02-18T00:02:34;3.45;;;2.28;;
54875;SDS011;40764;48.472;8.166;2023-02-18T00:08:34;4.00;;;2.97;;
54875;SDS011;40764;48.472;8.166;2023-02-18T00:14:35;4.07;;;2.67;;
54875;SDS011;40764;48.472;8.166;2023-02-18T00:20:37;4.40;;;2.90;;
54875;SDS011;40764;48.472;8.166;2023-02-18T00:26:38;6.15;;;2.70;;
54875;SDS011;40764;48.472;8.166;2023-02-18T00:32:38;4.43;;;3.23;;
54875;SDS011;40764;48.472;8.166;2023-02-18T00:38:42;4.22;;;2.88;;
54875;SDS011;40764;48.472;8.166;2023-02-18T00:44:44;6.38;;;3.30;;
54875;SDS011;40764;48.472;8.166;2023-02-18T00:50:44;4.80;;;2.63;;
54875;SDS011;40764;48.472;8.166;2023-02-18T00:56:45;5.73;;;2.90;;
54875;SDS011;40764;48.472;8.166;2023-02-18T01:02:45;4.57;;;3.20;;
54875;SDS011;40764;48.472;8.166;2023-02-18T01:08:47;3.50;;;2.70;;
54875;SDS011;40764;48.472;8.166;2023-02-18T01:20:47;5.43;;;3.13;;
54875;SDS011;40764;48.472;8.166;2023-02-18T01:26:48;4.43;;;3.03;;
54875;SDS011;40764;48.472;8.166;2023-02-18T01:32:48;3.33;;;3.00;;
54875;SDS011;40764;48.472;8.166;2023-02-18T01:38:49;5.90;;;3.37;;
54875;SDS011;40764;48.472;8.166;2023-02-18T01:44:49;3.60;;;2.70;;
54875;SDS011;40764;48.472;8.166;2023-02-18T01:50:52;10.40;;;3.10;;
54875;SDS011;40764;48.472;8.166;2023-02-18T01:56:57;3.47;;;2.70;;
54875;SDS011;40764;48.472;8.166;2023-02-18T02:03:05;4.93;;;2.95;;
54875;SDS011;40764;48.472;8.166;2023-02-18T02:09:05;4.70;;;3.13;;
54875;SDS011;40764;48.472;8.166;2023-02-18T02:40:20;3.63;;;2.20;;
54875;SDS011;40764;48.472;8.166;2023-02-18T02:46:30;4.05;;;2.50;;
54875;SDS011;40764;48.472;8.166;2023-02-18T02:52:43;5.72;;;3.25;;
54875;SDS011;40764;48.472;8.166;2023-02-18T02:59:02;2.60;;;2.30;;
54875;SDS011;40764;48.472;8.166;2023-02-18T03:11:28;4.70;;;2.97;;
54875;SDS011;40764;48.472;8.166;2023-02-18T03:17:34;3.67;;;2.13;;
54875;SDS011;40764;48.472;8.166;2023-02-18T03:23:48;4.13;;;2.25;;
54875;SDS011;40764;48.472;8.166;2023-02-18T03:30:15;3.30;;;2.60;;
54875;SDS011;40764;48.472;8.166;2023-02-18T03:36:13;4.82;;;2.35;;
54875;SDS011;40764;48.472;8.166;2023-02-18T03:42:15;4.27;;;2.37;;
54875;SDS011;40764;48.472;8.166;2023-02-18T03:48:16;5.03;;;2.75;;
54875;SDS011;40764;48.472;8.166;2023-02-18T03:54:17;3.80;;;2.57;;
54875;SDS011;40764;48.472;8.166;2023-02-18T04:00:18;3.23;;;2.47;;
54875;SDS011;40764;48.472;8.166;2023-02-18T04:06:19;5.00;;;2.45;;
54875;SDS011;40764;48.472;8.166;2023-02-18T04:12:19;6.20;;;2.33;;
54875;SDS011;40764;48.472;8.166;2023-02-18T04:18:19;3.00;;;2.30;;
54875;SDS011;40764;48.472;8.166;2023-02-18T04:24:21;5.77;;;2.37;;
54875;SDS011;40764;48.472;8.166;2023-02-18T04:30:21;5.38;;;2.25;;
54875;SDS011;40764;48.472;8.166;2023-02-18T04:36:21;4.65;;;2.88;;
54875;SDS011;40764;48.472;8.166;2023-02-18T04:42:22;3.20;;;2.27;;
54875;SDS011;40764;48.472;8.166;2023-02-18T04:48:22;3.43;;;2.23;;
54875;SDS011;40764;48.472;8.166;2023-02-18T04:54:23;3.00;;;2.13;;
54875;SDS011;40764;48.472;8.166;2023-02-18T05:00:23;4.78;;;2.92;;
54875;SDS011;40764;48.472;8.166;2023-02-18T05:06:24;3.20;;;2.60;;
54875;SDS011;40764;48.472;8.166;2023-02-18T05:12:24;5.50;;;2.00;;
54875;SDS011;40764;48.472;8.166;2023-02-18T05:18:24;2.67;;;2.20;;
54875;SDS011;40764;48.472;8.166;2023-02-18T05:24:25;5.40;;;2.77;;
54875;SDS011;40764;48.472;8.166;2023-02-18T05:30:25;12.43;;;4.47;;
54875;SDS011;40764;48.472;8.166;2023-02-18T05:36:26;10.27;;;4.47;;
54875;SDS011;40764;48.472;8.166;2023-02-18T05:42:26;5.70;;;2.60;;
54875;SDS011;40764;48.472;8.166;2023-02-18T05:48:27;4.57;;;3.17;;
54875;SDS011;40764;48.472;8.166;2023-02-18T05:54:27;6.40;;;3.80;;
54875;SDS011;40764;48.472;8.166;2023-02-18T06:00:27;6.57;;;3.43;;
54875;SDS011;40764;48.472;8.166;2023-02-18T06:06:29;4.13;;;3.05;;
54875;SDS011;40764;48.472;8.166;2023-02-18T06:12:30;3.33;;;2.30;;
54875;SDS011;40764;48.472;8.166;2023-02-18T06:18:30;4.77;;;2.93;;
54875;SDS011;40764;48.472;8.166;2023-02-18T06:24:30;4.05;;;2.58;;
54875;SDS011;40764;48.472;8.166;2023-02-18T06:30:31;3.20;;;2.45;;
54875;SDS011;40764;48.472;8.166;2023-02-18T06:36:31;3.83;;;2.60;;
54875;SDS011;40764;48.472;8.166;2023-02-18T06:42:31;17.50;;;6.83;;
54875;SDS011;40764;48.472;8.166;2023-02-18T06:48:32;4.28;;;2.20;;
54875;SDS011;40764;48.472;8.166;2023-02-18T06:54:33;10.23;;;5.67;;
54875;SDS011;40764;48.472;8.166;2023-02-18T07:00:33;5.10;;;2.57;;
54875;SDS011;40764;48.472;8.166;2023-02-18T07:06:34;6.80;;;3.90;;
54875;SDS011;40764;48.472;8.166;2023-02-18T07:12:34;5.35;;;2.30;;
54875;SDS011;40764;48.472;8.166;2023-02-18T07:18:34;6.53;;;3.03;;
54875;SDS011;40764;48.472;8.166;2023-02-18T07:24:35;4.30;;;2.80;;
54875;SDS011;40764;48.472;8.166;2023-02-18T07:30:35;3.03;;;1.90;;
54875;SDS011;40764;48.472;8.166;2023-02-18T07:36:35;10.68;;;3.65;;
54875;SDS011;40764;48.472;8.166;2023-02-18T07:42:36;2.77;;;2.10;;
54875;SDS011;40764;48.472;8.166;2023-02-18T07:48:36;7.32;;;4.97;;
54875;SDS011;40764;48.472;8.166;2023-02-18T07:54:36;38.77;;;20.13;;
54875;SDS011;40764;48.472;8.166;2023-02-18T08:00:37;3.85;;;2.10;;
54875;SDS011;40764;48.472;8.166;2023-02-18T08:06:38;5.40;;;3.63;;
54875;SDS011;40764;48.472;8.166;2023-02-18T08:12:45;5.03;;;3.78;;
54875;SDS011;40764;48.472;8.166;2023-02-18T08:18:45;4.10;;;1.63;;
54875;SDS011;40764;48.472;8.166;2023-02-18T08:24:46;40.70;;;16.85;;
54875;SDS011;40764;48.472;8.166;2023-02-18T08:30:56;16.43;;;8.67;;
54875;SDS011;40764;48.472;8.166;2023-02-18T08:36:57;6.20;;;1.95;;
54875;SDS011;40764;48.472;8.166;2023-02-18T08:42:57;5.80;;;1.40;;
54875;SDS011;40764;48.472;8.166;2023-02-18T08:55:38;3.28;;;1.67;;
54875;SDS011;40764;48.472;8.166;2023-02-18T09:01:41;2.80;;;1.30;;
54875;SDS011;40764;48.472;8.166;2023-02-18T09:07:41;2.33;;;1.73;;
54875;SDS011;40764;48.472;8.166;2023-02-18T09:13:41;2.53;;;1.25;;
54875;SDS011;40764;48.472;8.166;2023-02-18T09:19:45;3.63;;;1.70;;
54875;SDS011;40764;48.472;8.166;2023-02-18T09:25:46;3.42;;;1.92;;
54875;SDS011;40764;48.472;8.166;2023-02-18T09:45:00;2.77;;;1.60;;
54875;SDS011;40764;48.472;8.166;2023-02-18T09:51:12;10.38;;;5.07;;
54875;SDS011;40764;48.472;8.166;2023-02-18T09:57:17;4.40;;;1.92;;
54875;SDS011;40764;48.472;8.166;2023-02-18T10:10:20;3.03;;;1.80;;
54875;SDS011;40764;48.472;8.166;2023-02-18T10:16:28;3.88;;;1.52;;
54875;SDS011;40764;48.472;8.166;2023-02-18T10:22:29;2.65;;;1.77;;
54875;SDS011;40764;48.472;8.166;2023-02-18T10:28:30;1.73;;;1.57;;
54875;SDS011;40764;48.472;8.166;2023-02-18T10:40:58;3.83;;;1.58;;
54875;SDS011;40764;48.472;8.166;2023-02-18T10:53:32;3.97;;;2.10;;
54875;SDS011;40764;48.472;8.166;2023-02-18T10:59:35;3.38;;;2.28;;
54875;SDS011;40764;48.472;8.166;2023-02-18T11:05:35;4.05;;;2.50;;
54875;SDS011;40764;48.472;8.166;2023-02-18T11:11:37;6.53;;;2.20;;
54875;SDS011;40764;48.472;8.166;2023-02-18T11:17:38;4.78;;;2.28;;
54875;SDS011;40764;48.472;8.166;2023-02-18T11:23:47;2.38;;;1.60;;
54875;SDS011;40764;48.472;8.166;2023-02-18T11:29:50;3.35;;;1.80;;
54875;SDS011;40764;48.472;8.166;2023-02-18T11:35:53;3.53;;;1.63;;
54875;SDS011;40764;48.472;8.166;2023-02-18T11:42:01;5.32;;;1.88;;
54875;SDS011;40764;48.472;8.166;2023-02-18T11:48:15;1.85;;;1.30;;
54875;SDS011;40764;48.472;8.166;2023-02-18T11:54:34;3.00;;;1.67;;
54875;SDS011;40764;48.472;8.166;2023-02-18T12:00:47;2.88;;;1.70;;
54875;SDS011;40764;48.472;8.166;2023-02-18T12:13:16;3.17;;;1.63;;
54875;SDS011;40764;48.472;8.166;2023-02-18T12:39:00;4.32;;;1.80;;
54875;SDS011;40764;48.472;8.166;2023-02-18T12:51:35;3.75;;;2.10;;
54875;SDS011;40764;48.472;8.166;2023-02-18T13:04:12;2.95;;;1.60;;
54875;SDS011;40764;48.472;8.166;2023-02-18T13:22:44;2.05;;;1.40;;
54875;SDS011;40764;48.472;8.166;2023-02-18T13:36:15;3.25;;;1.52;;
54875;SDS011;40764;48.472;8.166;2023-02-18T13:42:26;2.23;;;1.60;;
54875;SDS011;40764;48.472;8.166;2023-02-18T13:49:05;6.05;;;3.03;;
54875;SDS011;40764;48.472;8.166;2023-02-18T13:55:00;5.93;;;1.90;;
54875;SDS011;40764;48.472;8.166;2023-02-18T14:01:03;3.20;;;1.70;;
54875;SDS011;40764;48.472;8.166;2023-02-18T14:07:18;5.10;;;2.90;;
54875;SDS011;40764;48.472;8.166;2023-02-18T14:13:23;2.75;;;1.70;;
54875;SDS011;40764;48.472;8.166;2023-02-18T14:19:36;5.40;;;3.22;;
54875;SDS011;40764;48.472;8.166;2023-02-18T14:25:40;2.23;;;1.80;;
54875;SDS011;40764;48.472;8.166;2023-02-18T14:31:49;2.63;;;1.42;;
54875;SDS011;40764;48.472;8.166;2023-02-18T14:38:13;4.95;;;2.50;;
54875;SDS011;40764;48.472;8.166;2023-02-18T14:50:57;5.85;;;2.78;;
54875;SDS011;40764;48.472;8.166;2023-02-18T14:57:00;9.63;;;5.03;;
54875;SDS011;40764;48.472;8.166;2023-02-18T15:03:15;8.32;;;3.10;;
54875;SDS011;40764;48.472;8.166;2023-02-18T15:09:18;3.88;;;2.08;;
54875;SDS011;40764;48.472;8.166;2023-02-18T15:15:21;15.52;;;4.88;;
54875;SDS011;40764;48.472;8.166;2023-02-18T15:21:27;6.27;;;2.93;;
54875;SDS011;40764;48.472;8.166;2023-02-18T15:27:30;3.75;;;2.42;;
54875;SDS011;40764;48.472;8.166;2023-02-18T15:33:34;2.85;;;1.60;;
54875;SDS011;40764;48.472;8.166;2023-02-18T15:39:34;4.05;;;2.25;;
54875;SDS011;40764;48.472;8.166;2023-02-18T15:45:41;4.43;;;2.22;;
54875;SDS011;40764;48.472;8.166;2023-02-18T15:51:44;6.57;;;2.10;;
54875;SDS011;40764;48.472;8.166;2023-02-18T15:57:44;13.77;;;5.63;;
54875;SDS011;40764;48.472;8.166;2023-02-18T16:03:45;8.83;;;2.67;;
54875;SDS011;40764;48.472;8.166;2023-02-18T16:09:46;4.53;;;3.10;;
54875;SDS011;40764;48.472;8.166;2023-02-18T16:15:47;11.43;;;4.35;;
54875;SDS011;40764;48.472;8.166;2023-02-18T16:21:49;3.95;;;2.42;;
54875;SDS011;40764;48.472;8.166;2023-02-18T16:28:01;8.43;;;6.50;;
54875;SDS011;40764;48.472;8.166;2023-02-18T16:34:04;6.55;;;3.53;;
54875;SDS011;40764;48.472;8.166;2023-02-18T16:46:29;6.10;;;3.97;;
54875;SDS011;40764;48.472;8.166;2023-02-18T16:52:30;14.33;;;4.40;;
54875;SDS011;40764;48.472;8.166;2023-02-18T16:58:31;14.87;;;7.90;;
54875;SDS011;40764;48.472;8.166;2023-02-18T17:04:36;9.40;;;5.90;;
54875;SDS011;40764;48.472;8.166;2023-02-18T17:10:37;10.15;;;5.20;;
54875;SDS011;40764;48.472;8.166;2023-02-18T17:16:48;11.43;;;5.10;;
54875;SDS011;40764;48.472;8.166;2023-02-18T17:22:54;9.13;;;6.78;;
54875;SDS011;40764;48.472;8.166;2023-02-18T17:29:00;9.77;;;4.95;;
54875;SDS011;40764;48.472;8.166;2023-02-18T17:35:05;12.23;;;5.97;;
54875;SDS011;40764;48.472;8.166;2023-02-18T17:41:07;17.95;;;10.15;;
54875;SDS011;40764;48.472;8.166;2023-02-18T17:47:11;41.38;;;19.02;;
54875;SDS011;40764;48.472;8.166;2023-02-18T17:53:15;8.63;;;5.78;;
54875;SDS011;40764;48.472;8.166;2023-02-18T17:59:23;19.35;;;9.00;;
54875;SDS011;40764;48.472;8.166;2023-02-18T18:05:25;12.48;;;8.00;;
54875;SDS011;40764;48.472;8.166;2023-02-18T18:11:31;7.00;;;5.03;;
54875;SDS011;40764;48.472;8.166;2023-02-18T18:17:32;49.08;;;22.00;;
54875;SDS011;40764;48.472;8.166;2023-02-18T18:23:35;25.33;;;11.10;;
54875;SDS011;40764;48.472;8.166;2023-02-18T18:29:36;24.58;;;13.32;;
54875;SDS011;40764;48.472;8.166;2023-02-18T18:35:36;60.37;;;26.43;;
54875;SDS011;40764;48.472;8.166;2023-02-18T18:41:39;73.10;;;30.48;;
54875;SDS011;40764;48.472;8.166;2023-02-18T18:47:43;10.57;;;6.38;;
54875;SDS011;40764;48.472;8.166;2023-02-18T18:53:47;30.48;;;13.98;;
54875;SDS011;40764;48.472;8.166;2023-02-18T18:59:47;40.73;;;19.80;;
54875;SDS011;40764;48.472;8.166;2023-02-18T19:05:48;51.70;;;23.70;;
54875;SDS011;40764;48.472;8.166;2023-02-18T19:11:52;40.03;;;17.63;;
54875;SDS011;40764;48.472;8.166;2023-02-18T19:17:57;11.75;;;6.40;;
54875;SDS011;40764;48.472;8.166;2023-02-18T19:24:05;8.00;;;5.70;;
54875;SDS011;40764;48.472;8.166;2023-02-18T19:30:07;12.52;;;6.82;;
54875;SDS011;40764;48.472;8.166;2023-02-18T19:36:11;8.13;;;4.70;;
54875;SDS011;40764;48.472;8.166;2023-02-18T19:48:17;8.07;;;4.20;;
54875;SDS011;40764;48.472;8.166;2023-02-18T19:54:17;8.98;;;4.07;;
54875;SDS011;40764;48.472;8.166;2023-02-18T20:00:21;6.63;;;4.32;;
54875;SDS011;40764;48.472;8.166;2023-02-18T20:06:24;10.90;;;4.90;;
54875;SDS011;40764;48.472;8.166;2023-02-18T20:12:27;8.53;;;5.73;;
54875;SDS011;40764;48.472;8.166;2023-02-18T20:18:28;13.82;;;6.80;;
54875;SDS011;40764;48.472;8.166;2023-02-18T20:24:29;10.27;;;5.40;;
54875;SDS011;40764;48.472;8.166;2023-02-18T20:30:31;12.80;;;6.68;;
54875;SDS011;40764;48.472;8.166;2023-02-18T20:36:31;12.33;;;7.87;;
54875;SDS011;40764;48.472;8.166;2023-02-18T20:42:31;7.70;;;5.55;;
54875;SDS011;40764;48.472;8.166;2023-02-18T20:48:33;21.00;;;7.23;;
54875;SDS011;40764;48.472;8.166;2023-02-18T20:54:33;25.50;;;11.77;;
54875;SDS011;40764;48.472;8.166;2023-02-18T21:00:34;10.00;;;6.07;;
54875;SDS011;40764;48.472;8.166;2023-02-18T21:06:34;7.13;;;4.60;;
54875;SDS011;40764;48.472;8.166;2023-02-18T21:12:34;8.07;;;5.53;;
54875;SDS011;40764;48.472;8.166;2023-02-18T21:18:35;7.47;;;5.25;;
54875;SDS011;40764;48.472;8.166;2023-02-18T21:24:35;11.93;;;5.80;;
54875;SDS011;40764;48.472;8.166;2023-02-18T21:30:37;11.32;;;4.65;;
54875;SDS011;40764;48.472;8.166;2023-02-18T21:36:39;4.32;;;3.03;;
54875;SDS011;40764;48.472;8.166;2023-02-18T21:42:40;5.35;;;3.53;;
54875;SDS011;40764;48.472;8.166;2023-02-18T21:48:40;7.45;;;3.58;;
54875;SDS011;40764;48.472;8.166;2023-02-18T21:54:59;4.05;;;2.88;;
54875;SDS011;40764;48.472;8.166;2023-02-18T22:00:59;4.75;;;2.65;;
54875;SDS011;40764;48.472;8.166;2023-02-18T22:07:00;3.33;;;2.30;;
54875;SDS011;40764;48.472;8.166;2023-02-18T22:13:02;4.95;;;2.90;;
54875;SDS011;40764;48.472;8.166;2023-02-18T22:19:02;4.43;;;3.10;;
54875;SDS011;40764;48.472;8.166;2023-02-18T22:25:03;4.93;;;2.57;;
54875;SDS011;40764;48.472;8.166;2023-02-18T22:31:08;3.70;;;2.37;;
54875;SDS011;40764;48.472;8.166;2023-02-18T22:37:10;3.50;;;2.22;;
54875;SDS011;40764;48.472;8.166;2023-02-18T22:43:10;5.50;;;3.20;;
54875;SDS011;40764;48.472;8.166;2023-02-18T22:49:11;4.18;;;2.53;;
54875;SDS011;40764;48.472;8.166;2023-02-18T22:55:11;3.10;;;1.73;;
54875;SDS011;40764;48.472;8.166;2023-02-18T23:07:18;2.92;;;2.22;;
54875;SDS011;40764;48.472;8.166;2023-02-18T23:13:22;3.95;;;2.25;;
54875;SDS011;40764;48.472;8.166;2023-02-18T23:19:23;2.85;;;2.08;;
54875;SDS011;40764;48.472;8.166;2023-02-18T23:25:24;2.97;;;2.08;;
54875;SDS011;40764;48.472;8.166;2023-02-18T23:31:25;2.45;;;1.98;;
54875;SDS011;40764;48.472;8.166;2023-02-18T23:37:26;5.95;;;2.13;;
54875;SDS011;40764;48.472;8.166;2023-02-18T23:43:46;2.88;;;1.80;;
54875;SDS011;40764;48.472;8.166;2023-02-18T23:49:47;6.20;;;2.30;;
54875;SDS011;40764;48.472;8.166;2023-02-18T23:55:47;1.80;;;1.65;;
